createdAt,value
2022-09-25T00:01:25.902Z,91.13
2022-09-25T00:03:54.285Z,91.01
2022-09-25T00:06:25.351Z,90.97
2022-09-25T00:08:54.086Z,91.15
2022-09-25T00:11:25.102Z,90.83
2022-09-25T00:13:53.914Z,91.20
2022-09-25T00:16:25.747Z,91.37
2022-09-25T00:19:12.268Z,91.36
2022-09-25T00:21:40.381Z,91.38
2022-09-25T00:24:11.434Z,91.39
2022-09-25T00:26:42.807Z,91.44
2022-09-25T00:29:17.648Z,91.44
2022-09-25T00:31:45.571Z,91.43
2022-09-25T00:34:13.629Z,91.57
2022-09-25T00:36:41.660Z,91.64
2022-09-25T00:39:09.999Z,92.06
2022-09-25T00:41:38.069Z,91.94
2022-09-25T00:44:44.350Z,91.99
2022-09-25T00:47:20.540Z,92.01
2022-09-25T00:49:49.405Z,92.18
2022-09-25T00:52:17.487Z,91.75
2022-09-25T00:54:52.403Z,91.93
2022-09-25T00:57:23.340Z,91.74
2022-09-25T00:59:55.430Z,91.74
2022-09-25T01:02:30.567Z,91.85
2022-09-25T01:05:01.972Z,92.25
2022-09-25T01:07:34.176Z,91.85
2022-09-25T01:10:03.872Z,92.01
2022-09-25T01:12:32.006Z,92.42
2022-09-25T01:14:59.936Z,92.04
2022-09-25T01:17:41.607Z,92.07
2022-09-25T01:20:23.345Z,91.80
2022-09-25T01:23:09.764Z,92.12
2022-09-25T01:26:20.924Z,91.77
2022-09-25T01:29:31.916Z,92.07
2022-09-25T01:32:17.884Z,92.25
2022-09-25T01:35:01.508Z,92.30
2022-09-25T01:37:48.957Z,92.31
2022-09-25T01:40:25.749Z,92.38
2022-09-25T01:43:35.137Z,92.52
2022-09-25T01:46:12.250Z,92.36
2022-09-25T01:48:43.195Z,92.73
2022-09-25T01:51:20.364Z,92.95
2022-09-25T01:53:57.006Z,92.59
2022-09-25T01:56:33.756Z,92.71
2022-09-25T01:59:40.456Z,92.65
2022-09-25T02:02:13.918Z,92.46
2022-09-25T02:05:07.523Z,92.77
2022-09-25T02:07:40.295Z,92.54
2022-09-25T02:10:37.080Z,92.38
2022-09-25T02:13:28.312Z,92.13
2022-09-25T02:16:09.709Z,92.34
2022-09-25T02:18:57.250Z,92.28
2022-09-25T02:21:43.559Z,92.20
2022-09-25T02:24:30.372Z,92.33
2022-09-25T02:26:58.271Z,92.12
2022-09-25T02:29:26.270Z,92.13
2022-09-25T02:31:59.824Z,92.22
2022-09-25T02:34:28.200Z,91.96
2022-09-25T02:36:56.671Z,92.17
2022-09-25T02:39:28.435Z,92.01
2022-09-25T02:42:38.159Z,91.63
2022-09-25T02:45:21.209Z,91.75
2022-09-25T02:47:52.068Z,91.85
2022-09-25T02:50:54.711Z,91.77
2022-09-25T02:53:25.625Z,92.17
2022-09-25T02:56:25.710Z,92.00
2022-09-25T02:58:58.668Z,91.54
2022-09-25T03:01:31.491Z,91.44
2022-09-25T03:04:01.980Z,91.44
2022-09-25T03:06:30.672Z,91.44
2022-09-25T03:09:00.972Z,91.57
2022-09-25T03:11:29.121Z,91.72
2022-09-25T03:14:02.375Z,91.74
2022-09-25T03:16:36.359Z,91.54
2022-09-25T03:19:04.411Z,91.65
2022-09-25T03:21:32.983Z,91.56
2022-09-25T03:24:29.582Z,91.72
2022-09-25T03:26:57.548Z,91.66
2022-09-25T03:29:25.425Z,91.70
2022-09-25T03:31:53.323Z,91.82
2022-09-25T03:34:21.701Z,91.86
2022-09-25T03:36:49.538Z,91.34
2022-09-25T03:39:20.264Z,91.59
2022-09-25T03:41:48.488Z,91.85
2022-09-25T03:44:16.377Z,91.60
2022-09-25T03:46:44.238Z,91.85
2022-09-25T03:49:12.870Z,91.35
2022-09-25T03:51:42.207Z,91.46
2022-09-25T03:54:10.084Z,91.52
2022-09-25T03:56:38.445Z,91.45
2022-09-25T03:59:06.374Z,91.21
2022-09-25T04:01:34.807Z,91.29
2022-09-25T04:04:03.395Z,91.48
2022-09-25T04:06:31.712Z,91.42
2022-09-25T04:08:59.607Z,91.08
2022-09-25T04:11:27.466Z,91.24
2022-09-25T04:13:57.097Z,91.20
2022-09-25T04:16:24.977Z,91.53
2022-09-25T04:18:52.860Z,91.07
2022-09-25T04:21:20.775Z,91.34
2022-09-25T04:24:08.645Z,91.05
2022-09-25T04:26:37.840Z,91.51
2022-09-25T04:29:05.901Z,91.36
2022-09-25T04:31:34.106Z,91.52
2022-09-25T04:34:02.242Z,91.34
2022-09-25T04:36:30.135Z,90.94
2022-09-25T04:38:58.063Z,91.25
2022-09-25T04:41:29.498Z,91.08
2022-09-25T04:43:57.389Z,91.26
2022-09-25T04:46:25.380Z,91.48
2022-09-25T04:48:53.374Z,91.35
2022-09-25T04:51:22.113Z,91.50
2022-09-25T04:55:10.344Z,91.05
2022-09-25T04:58:58.287Z,91.33
2022-09-25T05:02:47.200Z,91.65
2022-09-25T05:06:35.582Z,91.98
2022-09-25T05:10:24.126Z,92.23
2022-09-25T05:14:12.755Z,91.86
2022-09-25T05:18:01.657Z,91.79
2022-09-25T05:20:29.588Z,91.62
2022-09-25T05:22:58.814Z,91.89
2022-09-25T05:25:27.244Z,91.64
2022-09-25T05:27:58.545Z,91.42
2022-09-25T05:30:28.814Z,91.72
2022-09-25T05:33:00.462Z,91.69
2022-09-25T05:35:30.915Z,91.84
2022-09-25T05:37:58.819Z,91.91
2022-09-25T05:40:27.609Z,91.89
2022-09-25T05:42:55.723Z,92.23
2022-09-25T05:45:24.090Z,92.21
2022-09-25T05:48:03.208Z,91.92
2022-09-25T05:50:34.845Z,92.40
2022-09-25T05:53:05.358Z,92.01
2022-09-25T05:55:33.232Z,92.56
2022-09-25T05:58:05.047Z,92.51
2022-09-25T06:00:33.464Z,92.35
2022-09-25T06:03:02.322Z,92.49
2022-09-25T06:05:30.534Z,92.22
2022-09-25T06:07:58.474Z,92.55
2022-09-25T06:10:26.941Z,92.48
2022-09-25T06:13:01.571Z,92.45
2022-09-25T06:15:37.571Z,92.00
2022-09-25T06:18:07.996Z,92.02
2022-09-25T06:20:36.489Z,91.97
2022-09-25T06:23:04.386Z,92.04
2022-09-25T06:25:32.760Z,92.15
2022-09-25T06:28:01.613Z,91.97
2022-09-25T06:30:34.488Z,91.96
2022-09-25T06:33:09.970Z,91.87
2022-09-25T06:35:43.249Z,91.88
2022-09-25T06:38:12.176Z,91.67
2022-09-25T06:40:41.982Z,91.60
2022-09-25T06:43:12.269Z,91.77
2022-09-25T06:45:40.563Z,91.74
2022-09-25T06:48:18.848Z,91.80
2022-09-25T06:50:50.319Z,91.59
2022-09-25T06:53:20.267Z,91.66
2022-09-25T06:55:48.491Z,91.56
2022-09-25T06:58:22.231Z,91.69
2022-09-25T07:00:52.675Z,91.62
2022-09-25T07:03:39.860Z,91.76
2022-09-25T07:06:10.077Z,91.55
2022-09-25T07:08:38.455Z,91.63
2022-09-25T07:11:07.159Z,91.62
2022-09-25T07:13:36.966Z,91.77
2022-09-25T07:16:08.322Z,91.73
2022-09-25T07:18:36.195Z,91.69
2022-09-25T07:21:07.026Z,91.85
2022-09-25T07:23:35.704Z,91.84
2022-09-25T07:26:09.253Z,92.07
2022-09-25T07:28:39.401Z,92.12
2022-09-25T07:31:26.145Z,92.17
2022-09-25T07:33:54.693Z,92.36
2022-09-25T07:36:22.669Z,92.17
2022-09-25T07:38:52.027Z,92.44
2022-09-25T07:41:22.735Z,92.40
2022-09-25T07:46:46.553Z,92.36
2022-09-25T07:49:14.626Z,92.48
2022-09-25T07:51:42.578Z,92.76
2022-09-25T07:54:10.458Z,92.84
2022-09-25T07:56:38.644Z,92.77
2022-09-25T07:59:06.775Z,93.09
2022-09-25T08:01:38.338Z,93.09
2022-09-25T08:04:10.820Z,92.70
2022-09-25T08:06:38.788Z,92.75
2022-09-25T08:09:10.350Z,92.61
2022-09-25T08:11:39.255Z,92.62
2022-09-25T08:14:07.127Z,92.85
2022-09-25T08:16:35.180Z,92.81
2022-09-25T08:19:04.232Z,93.11
2022-09-25T08:21:32.424Z,92.95
2022-09-25T08:24:01.280Z,93.04
2022-09-25T08:26:30.322Z,93.08
2022-09-25T08:28:59.474Z,92.88
2022-09-25T08:31:27.473Z,92.81
2022-09-25T08:33:55.608Z,92.77
2022-09-25T08:36:23.778Z,92.70
2022-09-25T08:38:58.104Z,92.49
2022-09-25T08:41:38.001Z,92.77
2022-09-25T08:44:27.897Z,92.69
2022-09-25T08:47:38.760Z,92.91
2022-09-25T08:50:16.446Z,92.83
2022-09-25T08:52:53.674Z,92.66
2022-09-25T08:55:58.063Z,92.62
2022-09-25T08:58:31.097Z,92.50
2022-09-25T09:01:06.639Z,92.64
2022-09-25T09:03:49.228Z,92.74
2022-09-25T09:06:18.724Z,92.91
2022-09-25T09:08:54.188Z,92.68
2022-09-25T09:11:29.653Z,92.41
2022-09-25T09:14:05.095Z,92.20
2022-09-25T09:16:44.092Z,92.60
2022-09-25T09:19:12.897Z,92.81
2022-09-25T09:22:09.406Z,92.60
2022-09-25T09:24:52.661Z,92.49
2022-09-25T09:27:38.847Z,92.52
2022-09-25T09:30:19.023Z,92.71
2022-09-25T09:33:12.436Z,92.81
2022-09-25T09:36:12.287Z,92.88
2022-09-25T09:38:46.347Z,92.83
2022-09-25T09:41:50.324Z,92.79
2022-09-25T09:44:30.598Z,92.82
2022-09-25T09:47:11.110Z,92.91
2022-09-25T09:50:09.505Z,93.05
2022-09-25T09:52:42.490Z,92.86
2022-09-25T09:56:01.535Z,93.00
2022-09-25T09:58:29.331Z,93.03
2022-09-25T10:01:01.084Z,93.30
2022-09-25T10:03:39.136Z,93.23
2022-09-25T10:06:13.911Z,92.68
2022-09-25T10:08:42.324Z,92.95
2022-09-25T10:11:16.855Z,92.70
2022-09-25T10:13:46.983Z,92.62
2022-09-25T10:16:37.226Z,92.78
2022-09-25T10:19:10.339Z,92.86
2022-09-25T10:21:43.167Z,92.80
2022-09-25T10:24:31.020Z,92.46
2022-09-25T10:27:24.802Z,92.48
2022-09-25T10:30:07.314Z,92.51
2022-09-25T10:32:42.145Z,92.77
2022-09-25T10:35:22.078Z,92.84
2022-09-25T10:37:53.881Z,92.98
2022-09-25T10:40:26.941Z,92.88
2022-09-25T10:43:04.174Z,92.79
2022-09-25T10:45:35.029Z,91.35
2022-09-25T10:48:45.188Z,91.10
2022-09-25T10:51:18.445Z,90.46
2022-09-25T10:53:50.926Z,89.13
2022-09-25T10:56:23.044Z,89.65
2022-09-25T10:59:01.924Z,89.91
2022-09-25T11:01:35.548Z,89.88
2022-09-25T11:04:07.189Z,89.57
2022-09-25T11:06:35.902Z,89.37
2022-09-25T11:09:13.055Z,89.91
2022-09-25T11:11:41.399Z,89.94
2022-09-25T11:14:32.973Z,89.17
2022-09-25T11:17:06.826Z,88.09
2022-09-25T11:19:38.961Z,87.06
2022-09-25T11:22:13.416Z,87.63
2022-09-25T11:24:52.603Z,87.67
2022-09-25T11:27:47.031Z,86.08
2022-09-25T11:30:20.520Z,86.11
2022-09-25T11:33:04.905Z,86.00
2022-09-25T11:35:41.677Z,85.16
2022-09-25T11:38:56.445Z,85.16
2022-09-25T11:41:33.696Z,83.42
2022-09-25T11:44:27.876Z,82.27
2022-09-25T11:47:25.321Z,82.82
2022-09-25T11:49:55.001Z,81.83
2022-09-25T11:53:01.433Z,83.01
2022-09-25T11:55:34.734Z,81.45
2022-09-25T11:58:05.602Z,81.23
2022-09-25T12:00:49.768Z,81.94
2022-09-25T12:03:33.086Z,81.14
2022-09-25T12:06:26.995Z,81.11
2022-09-25T12:09:00.686Z,81.40
2022-09-25T12:11:52.222Z,79.65
2022-09-25T12:14:43.853Z,80.17
2022-09-25T12:17:18.056Z,80.06
2022-09-25T12:19:52.260Z,79.55
2022-09-25T12:22:26.895Z,79.97
2022-09-25T12:25:07.152Z,80.06
2022-09-25T12:27:51.896Z,80.28
2022-09-25T12:30:27.027Z,80.39
2022-09-25T12:33:16.897Z,80.06
2022-09-25T12:35:53.069Z,80.06
2022-09-25T12:38:39.195Z,80.17
2022-09-25T12:41:33.574Z,80.05
2022-09-25T12:44:12.919Z,79.00
2022-09-25T12:46:51.205Z,78.96
2022-09-25T12:49:43.877Z,78.59
2022-09-25T12:52:17.428Z,78.51
2022-09-25T12:55:13.798Z,78.59
2022-09-25T12:58:21.420Z,78.29
2022-09-25T13:00:59.678Z,78.44
2022-09-25T13:03:50.744Z,78.21
2022-09-25T13:06:44.094Z,78.10
2022-09-25T13:09:18.475Z,78.46
2022-09-25T13:11:52.692Z,78.43
2022-09-25T13:14:40.149Z,78.12
2022-09-25T13:17:12.544Z,78.29
2022-09-25T13:19:40.404Z,78.15
2022-09-25T13:22:22.503Z,77.93
2022-09-25T13:25:15.216Z,78.18
2022-09-25T13:27:46.613Z,78.37
2022-09-25T13:30:29.089Z,78.03
2022-09-25T13:33:01.377Z,78.07
2022-09-25T13:35:32.200Z,77.95
2022-09-25T13:38:14.496Z,78.13
2022-09-25T13:40:50.550Z,78.38
2022-09-25T13:43:24.156Z,77.97
2022-09-25T13:46:18.069Z,78.47
2022-09-25T13:48:46.391Z,78.25
2022-09-25T13:51:18.171Z,78.35
2022-09-25T13:54:00.090Z,78.30
2022-09-25T13:56:38.866Z,78.26
2022-09-25T13:59:14.022Z,78.31
2022-09-25T14:01:44.924Z,78.22
2022-09-25T14:04:15.829Z,78.24
2022-09-25T14:06:47.986Z,78.39
2022-09-25T14:09:29.744Z,78.44
2022-09-25T14:12:03.489Z,78.61
2022-09-25T14:14:42.872Z,78.50
2022-09-25T14:17:16.826Z,78.71
2022-09-25T14:19:49.151Z,78.77
2022-09-25T14:22:35.406Z,78.82
2022-09-25T14:25:03.434Z,78.69
2022-09-25T14:27:36.330Z,78.68
2022-09-25T14:30:07.860Z,78.74
2022-09-25T14:32:56.217Z,78.71
2022-09-25T14:35:32.426Z,78.70
2022-09-25T14:38:25.474Z,78.46
2022-09-25T14:41:31.143Z,78.67
2022-09-25T14:44:18.407Z,78.63
2022-09-25T14:46:51.587Z,79.04
2022-09-25T14:49:30.953Z,78.99
2022-09-25T14:52:06.168Z,78.94
2022-09-25T14:54:38.267Z,78.74
2022-09-25T14:57:08.001Z,78.95
2022-09-25T14:59:43.701Z,78.91
2022-09-25T15:02:23.604Z,79.19
2022-09-25T15:04:52.090Z,79.06
2022-09-25T15:07:24.917Z,79.03
2022-09-25T15:09:56.338Z,79.20
2022-09-25T15:12:29.447Z,79.32
2022-09-25T15:15:15.134Z,79.26
2022-09-25T15:17:59.388Z,79.33
2022-09-25T15:20:31.285Z,79.45
2022-09-25T15:23:07.730Z,79.56
2022-09-25T15:25:40.446Z,79.71
2022-09-25T15:28:13.986Z,79.67
2022-09-25T15:30:42.403Z,79.73
2022-09-25T15:33:25.701Z,79.78
2022-09-25T15:35:58.185Z,79.87
2022-09-25T15:38:31.970Z,80.53
2022-09-25T15:41:00.644Z,80.86
2022-09-25T15:43:30.150Z,80.96
2022-09-25T15:46:10.485Z,80.74
2022-09-25T15:48:52.699Z,80.88
2022-09-25T15:51:25.220Z,80.83
2022-09-25T15:53:57.320Z,81.10
2022-09-25T15:56:28.471Z,80.41
2022-09-25T15:59:07.026Z,79.98
2022-09-25T16:01:54.065Z,79.80
2022-09-25T16:04:42.690Z,80.00
2022-09-25T16:07:26.036Z,80.12
2022-09-25T16:09:59.804Z,79.63
2022-09-25T16:12:32.838Z,79.66
2022-09-25T16:15:26.914Z,79.79
2022-09-25T16:18:01.418Z,79.76
2022-09-25T16:20:40.567Z,79.80
2022-09-25T16:23:40.123Z,79.99
2022-09-25T16:26:22.342Z,80.04
2022-09-25T16:28:57.505Z,79.80
2022-09-25T16:31:25.915Z,80.08
2022-09-25T16:34:01.224Z,79.97
2022-09-25T16:36:42.997Z,80.34
2022-09-25T16:39:11.425Z,80.22
2022-09-25T16:41:46.292Z,80.26
2022-09-25T16:44:17.946Z,80.54
2022-09-25T16:46:47.437Z,80.53
2022-09-25T16:49:15.457Z,80.52
2022-09-25T16:51:46.048Z,80.82
2022-09-25T16:54:16.638Z,80.87
2022-09-25T16:56:48.313Z,81.00
2022-09-25T16:59:21.951Z,81.03
2022-09-25T17:01:54.576Z,81.09
2022-09-25T17:04:26.476Z,81.21
2022-09-25T17:06:57.441Z,81.28
2022-09-25T17:09:31.604Z,81.38
2022-09-25T17:12:05.331Z,81.63
2022-09-25T17:14:34.261Z,81.69
2022-09-25T17:17:04.065Z,82.09
2022-09-25T17:19:34.149Z,82.21
2022-09-25T17:22:02.002Z,82.17
2022-09-25T17:24:30.645Z,82.57
2022-09-25T17:26:58.746Z,83.21
2022-09-25T17:29:27.561Z,82.89
2022-09-25T17:31:55.496Z,83.23
2022-09-25T17:34:28.666Z,83.34
2022-09-25T17:36:58.037Z,83.64
2022-09-25T17:39:26.064Z,83.75
2022-09-25T17:41:53.987Z,83.94
2022-09-25T17:44:25.181Z,84.09
2022-09-25T17:46:55.965Z,84.27
2022-09-25T17:49:24.291Z,84.24
2022-09-25T17:51:53.438Z,84.51
2022-09-25T17:54:21.461Z,85.03
2022-09-25T17:56:50.551Z,85.20
2022-09-25T17:59:18.595Z,85.79
2022-09-25T18:01:46.758Z,85.87
2022-09-25T18:04:23.589Z,85.94
2022-09-25T18:06:52.210Z,86.17
2022-09-25T18:09:20.270Z,86.21
2022-09-25T18:11:48.289Z,86.37
2022-09-25T18:14:16.387Z,86.75
2022-09-25T18:16:45.257Z,86.84
2022-09-25T18:19:36.700Z,86.72
2022-09-25T18:22:17.909Z,86.81
2022-09-25T18:24:56.571Z,87.08
2022-09-25T18:27:30.618Z,87.64
2022-09-25T18:29:58.561Z,88.00
2022-09-25T18:32:27.054Z,88.38
2022-09-25T18:34:54.925Z,88.46
2022-09-25T18:37:22.840Z,88.64
2022-09-25T18:39:51.350Z,88.47
2022-09-25T18:42:19.330Z,88.54
2022-09-25T18:44:47.594Z,89.17
2022-09-25T18:47:15.650Z,89.47
2022-09-25T18:49:43.787Z,89.31
2022-09-25T18:52:11.792Z,89.22
2022-09-25T18:54:42.424Z,89.53
2022-09-25T18:57:12.101Z,89.43
2022-09-25T18:59:40.899Z,89.46
2022-09-25T19:02:19.760Z,89.42
2022-09-25T19:04:48.313Z,89.42
2022-09-25T19:07:16.317Z,89.83
2022-09-25T19:09:44.371Z,89.93
2022-09-25T19:12:19.476Z,92.08
2022-09-25T19:15:04.996Z,92.07
2022-09-25T19:17:45.055Z,92.40
2022-09-25T19:20:18.981Z,91.37
2022-09-25T19:22:47.339Z,91.43
2022-09-25T19:25:20.125Z,90.95
2022-09-25T19:27:59.603Z,90.89
2022-09-25T19:30:30.954Z,90.50
2022-09-25T19:33:02.168Z,89.95
2022-09-25T19:35:36.520Z,90.56
2022-09-25T19:38:12.711Z,90.90
2022-09-25T19:40:41.751Z,90.75
2022-09-25T19:43:14.802Z,91.57
2022-09-25T19:45:56.471Z,91.11
2022-09-25T19:48:28.995Z,91.07
2022-09-25T19:50:57.112Z,91.33
2022-09-25T19:56:13.885Z,90.57
2022-09-25T19:58:51.541Z,90.66
2022-09-25T20:01:30.812Z,90.69
2022-09-25T20:03:59.690Z,89.66
2022-09-25T20:06:30.034Z,89.24
2022-09-25T20:09:03.599Z,89.23
2022-09-25T20:11:37.814Z,89.26
2022-09-25T20:14:07.647Z,89.44
2022-09-25T20:16:37.792Z,89.56
2022-09-25T20:19:07.549Z,89.75
2022-09-25T20:21:37.749Z,89.76
2022-09-25T20:24:08.302Z,89.67
2022-09-25T20:26:36.885Z,89.62
2022-09-25T20:29:12.359Z,89.61
2022-09-25T20:31:42.896Z,89.51
2022-09-25T20:34:18.769Z,89.61
2022-09-25T20:36:47.395Z,89.53
2022-09-25T20:39:20.888Z,89.72
2022-09-25T20:41:51.071Z,90.06
2022-09-25T20:44:18.978Z,89.83
2022-09-25T20:46:47.311Z,89.85
2022-09-25T20:49:16.541Z,89.70
2022-09-25T20:51:44.426Z,90.22
2022-09-25T20:54:12.846Z,89.96
2022-09-25T20:56:44.074Z,89.88
2022-09-25T20:59:12.221Z,90.35
2022-09-25T21:01:41.600Z,90.26
2022-09-25T21:04:10.124Z,90.21
2022-09-25T21:06:40.080Z,90.14
2022-09-25T21:09:15.768Z,90.12
2022-09-25T21:11:43.681Z,90.09
2022-09-25T21:14:16.401Z,91.52
2022-09-25T21:16:44.378Z,92.11
2022-09-25T21:19:14.933Z,91.96
2022-09-25T21:21:42.806Z,92.25
2022-09-25T21:24:16.177Z,92.50
2022-09-25T21:26:45.417Z,92.98
2022-09-25T21:29:15.892Z,92.93
2022-09-25T21:31:49.479Z,92.96
2022-09-25T21:34:19.266Z,93.35
2022-09-25T21:36:48.136Z,93.25
2022-09-25T21:39:16.353Z,93.08
2022-09-25T21:41:44.997Z,92.84
2022-09-25T21:44:16.905Z,93.57
2022-09-25T21:46:44.866Z,93.10
2022-09-25T21:49:22.010Z,93.34
2022-09-25T21:51:49.995Z,94.07
2022-09-25T21:54:18.912Z,93.71
2022-09-25T21:56:47.910Z,93.69
2022-09-25T21:59:17.026Z,94.28
2022-09-25T22:01:45.199Z,95.08
2022-09-25T22:04:14.546Z,95.50
2022-09-25T22:06:45.666Z,95.65
2022-09-25T22:09:20.624Z,95.41
2022-09-25T22:11:49.680Z,95.27
2022-09-25T22:14:19.481Z,95.03
2022-09-25T22:16:50.391Z,95.20
2022-09-25T22:19:27.445Z,94.92
2022-09-25T22:21:57.585Z,94.78
2022-09-25T22:24:26.524Z,94.73
2022-09-25T22:26:55.651Z,94.43
2022-09-25T22:30:03.804Z,95.24
2022-09-25T22:32:32.560Z,95.00
2022-09-25T22:35:00.408Z,95.07
2022-09-25T22:37:28.261Z,94.93
2022-09-25T22:39:56.099Z,94.74
2022-09-25T22:42:23.955Z,95.00
2022-09-25T22:44:51.912Z,95.00
2022-09-25T22:47:19.851Z,95.56
2022-09-25T22:49:48.081Z,95.61
2022-09-25T22:52:15.997Z,95.15
2022-09-25T22:54:43.815Z,94.94
2022-09-25T22:57:11.714Z,94.45
2022-09-25T22:59:39.713Z,94.73
2022-09-25T23:02:07.594Z,94.78
2022-09-25T23:04:35.486Z,95.06
2022-09-25T23:07:03.436Z,95.01
2022-09-25T23:09:31.268Z,95.03
2022-09-25T23:11:59.081Z,95.62
2022-09-25T23:14:30.291Z,95.85
2022-09-25T23:16:59.737Z,95.62
2022-09-25T23:19:27.873Z,95.86
2022-09-25T23:21:56.809Z,96.27
2022-09-25T23:24:25.278Z,96.28
2022-09-25T23:26:53.638Z,96.64
2022-09-25T23:29:22.500Z,96.83
2022-09-25T23:31:51.465Z,97.04
2022-09-25T23:34:19.682Z,97.55
2022-09-25T23:36:47.578Z,97.67
2022-09-25T23:39:18.941Z,97.97
2022-09-25T23:41:47.971Z,97.96
2022-09-25T23:44:16.102Z,98.26
2022-09-25T23:46:44.250Z,98.33
2022-09-25T23:49:13.391Z,97.56
2022-09-25T23:51:41.713Z,97.62
2022-09-25T23:54:10.658Z,97.67
2022-09-25T23:56:40.497Z,98.23
2022-09-25T23:59:11.801Z,98.15
